Time;durP1;ratioP1;P1;durP2;ratioP2;P2;SDS_P1;SDS_P2;PMS_P1;PMS_P2;Temp;Humidity;BMP_temperature;BMP_pressure;BME280_temperature;BME280_humidity;BME280_pressure;Samples;Min_cycle;Max_cycle;Signal;HPM_P1;HPM_P2
2023/12/28 00:02:16;;;;;;;3.95;2.50;;;5.80;1.00;;;;;;7380009;19;20410;-70
2023/12/28 00:04:46;;;;;;;4.72;2.72;;;6.40;1.00;;;;;;7381895;19;20494;-70
2023/12/28 00:07:18;;;;;;;3.72;2.45;;;6.80;1.00;;;;;;7380563;19;20399;-70
2023/12/28 00:09:48;;;;;;;3.10;2.20;;;6.60;1.00;;;;;;7380612;19;20436;-70
2023/12/28 00:12:19;;;;;;;3.33;2.13;;;6.80;1.00;;;;;;7380884;19;20016;-71
2023/12/28 00:14:49;;;;;;;2.90;2.17;;;7.00;1.00;;;;;;7380447;19;20015;-70
2023/12/28 00:17:19;;;;;;;4.07;2.35;;;6.90;1.00;;;;;;7379238;19;20025;-70
2023/12/28 00:19:49;;;;;;;2.58;2.05;;;7.10;1.00;;;;;;7379985;19;20010;-69
2023/12/28 00:22:22;;;;;;;2.95;2.13;;;7.10;1.00;;;;;;7379411;19;20345;-72
2023/12/28 00:24:53;;;;;;;2.47;1.85;;;7.10;1.00;;;;;;7373818;19;20017;-71
2023/12/28 00:27:24;;;;;;;2.63;2.03;;;7.20;1.00;;;;;;7375445;19;20007;-72
2023/12/28 00:29:55;;;;;;;3.35;2.33;;;7.20;1.00;;;;;;7366730;19;20013;-70
2023/12/28 00:32:25;;;;;;;2.50;2.00;;;7.20;1.00;;;;;;7380448;19;20126;-70
2023/12/28 00:34:55;;;;;;;2.55;2.00;;;7.20;1.00;;;;;;7379868;19;20015;-71
2023/12/28 00:37:28;;;;;;;2.08;1.70;;;7.50;1.00;;;;;;7380214;19;20470;-70
2023/12/28 00:39:58;;;;;;;2.60;1.60;;;7.50;1.00;;;;;;7378671;19;20019;-70
2023/12/28 00:42:28;;;;;;;2.67;1.92;;;7.50;1.00;;;;;;7374454;19;20007;-70
2023/12/28 00:44:59;;;;;;;2.55;1.92;;;7.50;1.00;;;;;;7378812;19;20011;-71
2023/12/28 00:47:29;;;;;;;4.72;1.50;;;7.50;1.00;;;;;;7376717;19;20478;-70
2023/12/28 00:49:59;;;;;;;2.42;1.70;;;7.60;1.00;;;;;;7375569;19;20010;-71
2023/12/28 00:52:32;;;;;;;2.85;2.15;;;7.50;1.00;;;;;;7376958;19;20027;-71
2023/12/28 00:55:02;;;;;;;6.55;2.20;;;7.30;1.00;;;;;;7377049;19;20015;-70
2023/12/28 00:57:32;;;;;;;2.08;1.85;;;7.30;1.00;;;;;;7377517;19;20299;-70
2023/12/28 01:00:04;;;;;;;3.00;1.98;;;7.20;1.00;;;;;;7377701;19;20487;-70
2023/12/28 01:02:34;;;;;;;3.20;2.00;;;7.20;1.00;;;;;;7377239;19;20007;-70
2023/12/28 01:05:04;;;;;;;2.20;1.65;;;7.10;1.00;;;;;;7377880;19;20014;-71
2023/12/28 01:07:37;;;;;;;2.60;2.10;;;6.90;1.00;;;;;;7377516;19;20010;-71
2023/12/28 01:10:09;;;;;;;2.03;1.48;;;7.00;1.00;;;;;;7377044;19;20006;-70
2023/12/28 01:12:39;;;;;;;4.35;2.08;;;6.80;1.00;;;;;;7376748;19;20024;-71
2023/12/28 01:15:10;;;;;;;2.42;1.95;;;6.80;1.00;;;;;;7376182;19;20026;-70
2023/12/28 01:17:40;;;;;;;2.75;1.98;;;6.80;1.00;;;;;;7377553;19;20098;-70
2023/12/28 01:20:11;;;;;;;2.95;2.10;;;6.80;1.00;;;;;;7378089;19;20011;-70
2023/12/28 01:22:44;;;;;;;3.70;2.13;;;6.70;1.00;;;;;;7377636;19;20014;-69
2023/12/28 01:25:14;;;;;;;2.95;2.10;;;6.70;1.00;;;;;;7376384;19;20842;-70
2023/12/28 01:27:44;;;;;;;2.80;2.05;;;6.70;1.00;;;;;;7375581;19;20023;-70
2023/12/28 01:30:14;;;;;;;2.40;1.90;;;6.70;1.00;;;;;;7376935;19;20018;-71
2023/12/28 01:32:45;;;;;;;3.53;2.00;;;6.70;1.00;;;;;;7377371;19;20046;-70
2023/12/28 01:35:15;;;;;;;2.45;2.00;;;6.60;1.00;;;;;;7377036;19;20017;-70
2023/12/28 01:37:47;;;;;;;2.83;1.80;;;6.60;1.00;;;;;;7375798;19;20006;-70
2023/12/28 01:40:18;;;;;;;2.75;2.00;;;6.40;1.00;;;;;;7376925;19;20010;-70
2023/12/28 01:42:48;;;;;;;3.50;1.98;;;6.50;1.00;;;;;;7375329;19;20479;-70
2023/12/28 01:45:19;;;;;;;2.70;1.95;;;6.40;1.00;;;;;;7376422;19;20006;-69
2023/12/28 01:47:51;;;;;;;3.03;1.90;;;6.30;1.00;;;;;;7375639;19;20524;-70
2023/12/28 01:50:21;;;;;;;3.22;1.90;;;6.40;1.00;;;;;;7376225;19;20010;-70
2023/12/28 01:52:54;;;;;;;2.55;1.80;;;6.40;1.00;;;;;;7376735;19;20010;-70
2023/12/28 01:55:26;;;;;;;3.05;2.17;;;6.40;1.00;;;;;;7376760;19;20026;-70
2023/12/28 01:57:57;;;;;;;2.95;2.42;;;6.40;1.00;;;;;;7375041;19;20014;-70
2023/12/28 02:00:28;;;;;;;4.38;2.15;;;6.30;1.00;;;;;;7379772;19;20014;-70
2023/12/28 02:02:59;;;;;;;2.15;1.67;;;6.40;1.00;;;;;;7378993;19;20502;-71
2023/12/28 02:05:29;;;;;;;2.50;2.00;;;6.30;1.00;;;;;;7376442;19;20526;-70
2023/12/28 02:08:01;;;;;;;3.03;1.90;;;6.30;1.00;;;;;;7374293;19;20017;-70
2023/12/28 02:10:31;;;;;;;3.10;2.10;;;6.20;1.00;;;;;;7376686;19;20454;-70
2023/12/28 02:13:01;;;;;;;2.75;2.00;;;6.20;1.00;;;;;;7377571;19;20035;-69
2023/12/28 02:15:31;;;;;;;3.00;2.10;;;6.30;1.00;;;;;;7376467;19;20418;-70
2023/12/28 02:18:05;;;;;;;8.32;2.30;;;6.20;1.00;;;;;;7375515;19;20102;-71
2023/12/28 02:20:37;;;;;;;3.40;2.10;;;6.20;1.00;;;;;;7372218;19;20011;-71
2023/12/28 02:23:10;;;;;;;2.47;1.95;;;6.30;1.00;;;;;;7375488;19;20003;-70
2023/12/28 02:25:42;;;;;;;3.25;2.20;;;6.20;1.00;;;;;;7380780;19;20018;-70
2023/12/28 02:28:13;;;;;;;3.42;2.10;;;6.20;1.00;;;;;;7381159;19;20039;-70
2023/12/28 02:30:43;;;;;;;3.13;2.28;;;6.10;1.00;;;;;;7382154;19;20041;-70
2023/12/28 02:33:21;;;;;;;3.67;2.20;;;6.20;1.00;;;;;;7381990;19;20082;-70
2023/12/28 02:35:57;;;;;;;2.10;1.70;;;6.00;1.00;;;;;;7382305;19;20021;-70
2023/12/28 02:38:32;;;;;;;2.75;2.08;;;6.00;1.00;;;;;;7381650;19;20017;-70
2023/12/28 02:41:06;;;;;;;2.95;2.15;;;5.90;1.00;;;;;;7383267;19;20046;-70
2023/12/28 02:43:36;;;;;;;2.75;1.92;;;6.00;1.00;;;;;;7383375;19;20035;-70
2023/12/28 02:46:06;;;;;;;3.80;2.10;;;6.10;1.00;;;;;;7379210;19;20010;-70
2023/12/28 02:48:36;;;;;;;3.15;2.00;;;6.20;1.00;;;;;;7381069;19;20014;-70
2023/12/28 02:51:07;;;;;;;3.40;2.10;;;6.30;1.00;;;;;;7381143;19;20010;-71
2023/12/28 02:53:37;;;;;;;1.95;1.75;;;6.20;1.00;;;;;;7380864;19;20415;-70
2023/12/28 02:56:10;;;;;;;3.05;1.80;;;6.30;1.00;;;;;;7381785;19;20007;-71
2023/12/28 02:58:40;;;;;;;2.97;1.77;;;6.40;1.00;;;;;;7380949;19;20007;-70
2023/12/28 03:01:10;;;;;;;2.28;1.80;;;6.60;1.00;;;;;;7381294;19;20010;-70
2023/12/28 03:03:40;;;;;;;2.22;1.70;;;6.50;1.00;;;;;;7381153;19;20015;-70
2023/12/28 03:06:10;;;;;;;2.17;1.60;;;6.50;1.00;;;;;;7380812;19;20010;-70
2023/12/28 03:08:41;;;;;;;2.08;1.60;;;6.50;1.00;;;;;;7380980;19;20046;-71
2023/12/28 03:11:13;;;;;;;2.15;1.38;;;6.60;1.00;;;;;;7380630;19;20459;-70
2023/12/28 03:13:43;;;;;;;3.28;1.58;;;6.60;1.00;;;;;;7379889;19;20649;-70
2023/12/28 03:16:15;;;;;;;2.00;1.50;;;6.80;1.00;;;;;;7381032;19;20022;-70
2023/12/28 03:18:45;;;;;;;3.30;1.92;;;6.80;1.00;;;;;;7379603;19;20482;-69
2023/12/28 03:21:16;;;;;;;2.55;1.80;;;6.80;1.00;;;;;;7380361;19;20010;-70
2023/12/28 03:23:46;;;;;;;3.72;1.70;;;6.80;1.00;;;;;;7380370;19;20057;-70
2023/12/28 03:26:18;;;;;;;2.28;1.60;;;6.70;1.00;;;;;;7380086;19;20006;-70
2023/12/28 03:28:48;;;;;;;2.60;1.90;;;6.70;1.00;;;;;;7380017;19;20010;-71
2023/12/28 03:31:18;;;;;;;2.50;1.80;;;6.70;1.00;;;;;;7380437;19;20475;-70
2023/12/28 03:33:48;;;;;;;2.30;1.58;;;6.70;1.00;;;;;;7379732;19;20018;-70
2023/12/28 03:36:23;;;;;;;3.30;2.00;;;6.80;1.00;;;;;;7380111;19;20006;-70
2023/12/28 03:38:55;;;;;;;2.92;1.95;;;6.80;1.00;;;;;;7379067;19;20003;-69
2023/12/28 03:41:28;;;;;;;5.60;2.10;;;7.00;1.00;;;;;;7380087;19;20011;-70
2023/12/28 03:43:58;;;;;;;2.35;1.98;;;7.10;1.00;;;;;;7380382;19;20157;-70
2023/12/28 03:46:31;;;;;;;2.95;2.15;;;7.20;1.00;;;;;;7380000;19;20363;-70
2023/12/28 03:49:01;;;;;;;2.78;2.10;;;7.40;1.00;;;;;;7380219;19;20011;-70
2023/12/28 03:51:31;;;;;;;3.80;2.17;;;7.20;1.00;;;;;;7380432;19;20379;-70
2023/12/28 03:54:01;;;;;;;5.15;2.20;;;7.20;1.00;;;;;;7378878;19;20006;-70
2023/12/28 03:56:35;;;;;;;3.00;1.65;;;7.30;1.00;;;;;;7380722;19;20026;-70
2023/12/28 03:59:05;;;;;;;2.07;1.63;;;7.30;1.00;;;;;;7379822;19;20359;-70
2023/12/28 04:01:36;;;;;;;5.80;1.95;;;7.30;1.00;;;;;;7377485;19;20239;-69
2023/12/28 04:04:06;;;;;;;3.70;1.60;;;7.40;1.00;;;;;;7378622;19;20683;-70
2023/12/28 04:06:37;;;;;;;2.30;1.65;;;7.30;1.00;;;;;;7380209;19;20517;-70
2023/12/28 04:09:07;;;;;;;2.63;1.95;;;7.40;1.00;;;;;;7377079;19;20022;-70
2023/12/28 04:11:40;;;;;;;2.45;1.65;;;7.40;1.00;;;;;;7379451;19;20020;-70
2023/12/28 04:14:10;;;;;;;1.98;1.35;;;7.50;1.00;;;;;;7380217;19;20016;-71
2023/12/28 04:16:40;;;;;;;1.77;1.40;;;7.50;1.00;;;;;;7379296;19;20527;-70
2023/12/28 04:19:11;;;;;;;1.88;1.52;;;7.70;1.00;;;;;;7376917;19;20040;-70
2023/12/28 04:21:45;;;;;;;2.47;1.83;;;7.70;1.00;;;;;;7376938;19;20074;-70
2023/12/28 04:24:16;;;;;;;3.03;1.75;;;7.90;1.00;;;;;;7372370;19;20035;-71
2023/12/28 04:26:49;;;;;;;2.45;1.70;;;7.90;1.00;;;;;;7377017;19;20021;-70
2023/12/28 04:29:21;;;;;;;2.05;1.55;;;8.00;1.00;;;;;;7374954;19;20027;-70
2023/12/28 04:31:51;;;;;;;2.20;1.60;;;8.20;1.00;;;;;;7379222;19;20014;-71
2023/12/28 04:34:22;;;;;;;2.63;1.70;;;8.10;1.00;;;;;;7378683;19;20427;-71
2023/12/28 04:36:53;;;;;;;1.98;1.50;;;8.20;1.00;;;;;;7379720;19;20081;-70
2023/12/28 04:39:23;;;;;;;3.17;1.80;;;8.30;1.00;;;;;;7377163;19;20041;-71
2023/12/28 04:41:56;;;;;;;2.70;1.50;;;8.30;1.00;;;;;;7379730;19;20467;-70
2023/12/28 04:44:26;;;;;;;2.50;1.45;;;8.40;1.00;;;;;;7380477;19;20018;-71
2023/12/28 04:46:56;;;;;;;3.75;1.52;;;8.30;1.00;;;;;;7378499;19;20013;-70
2023/12/28 04:49:26;;;;;;;2.00;1.50;;;8.20;1.00;;;;;;7378517;19;20010;-71
2023/12/28 04:51:56;;;;;;;3.10;1.80;;;8.20;1.00;;;;;;7379264;19;20079;-70
2023/12/28 04:54:27;;;;;;;1.80;1.40;;;8.10;1.00;;;;;;7378044;19;20010;-70
2023/12/28 04:56:59;;;;;;;2.58;1.58;;;8.10;1.00;;;;;;7379538;19;20010;-71
2023/12/28 04:59:29;;;;;;;2.67;1.48;;;8.00;1.00;;;;;;7378895;19;20010;-71
2023/12/28 05:02:00;;;;;;;1.95;1.58;;;7.90;1.00;;;;;;7375389;19;20305;-70
2023/12/28 05:04:31;;;;;;;3.40;2.00;;;8.00;1.00;;;;;;7374132;19;20903;-70
2023/12/28 05:07:02;;;;;;;1.95;1.50;;;8.10;1.00;;;;;;7374469;19;20031;-70
2023/12/28 05:09:33;;;;;;;2.58;1.38;;;8.00;1.00;;;;;;7376490;19;20010;-70
2023/12/28 05:12:07;;;;;;;2.35;1.50;;;7.90;1.00;;;;;;7374604;19;20018;-70
2023/12/28 05:14:38;;;;;;;4.55;2.33;;;7.90;1.00;;;;;;7374443;19;20006;-69
2023/12/28 05:17:08;;;;;;;2.33;1.50;;;7.90;1.00;;;;;;7377604;19;20030;-71
2023/12/28 05:19:38;;;;;;;3.03;1.60;;;8.00;1.00;;;;;;7377159;19;20103;-70
2023/12/28 05:22:10;;;;;;;3.15;1.48;;;8.00;1.00;;;;;;7376649;19;20010;-71
2023/12/28 05:24:41;;;;;;;2.25;1.80;;;8.10;1.00;;;;;;7377899;19;20014;-70
2023/12/28 05:27:14;;;;;;;2.85;1.75;;;8.10;1.00;;;;;;7376350;19;20094;-71
2023/12/28 05:29:44;;;;;;;3.85;1.65;;;8.20;1.00;;;;;;7376910;19;20044;-71
2023/12/28 05:32:14;;;;;;;3.50;1.80;;;8.30;1.00;;;;;;7375749;19;20480;-70
2023/12/28 05:34:45;;;;;;;3.05;1.90;;;8.20;1.00;;;;;;7377741;19;20014;-70
2023/12/28 05:37:15;;;;;;;2.65;1.80;;;8.20;1.00;;;;;;7378913;19;20011;-70
2023/12/28 05:39:45;;;;;;;1.83;1.38;;;8.10;1.00;;;;;;7376724;19;20017;-70
2023/12/28 05:42:18;;;;;;;2.75;1.58;;;8.20;1.00;;;;;;7377597;19;20043;-70
2023/12/28 05:44:48;;;;;;;2.58;1.58;;;8.20;1.00;;;;;;7377681;19;20536;-69
2023/12/28 05:47:18;;;;;;;3.28;1.67;;;8.20;1.00;;;;;;7377894;19;20014;-70
2023/12/28 05:49:48;;;;;;;2.50;1.67;;;8.20;1.00;;;;;;7376624;19;20017;-70
2023/12/28 05:52:19;;;;;;;5.07;2.03;;;8.20;1.00;;;;;;7377842;19;20066;-70
2023/12/28 05:54:50;;;;;;;3.13;1.85;;;8.20;1.00;;;;;;7377305;19;20015;-70
2023/12/28 05:57:22;;;;;;;6.18;1.75;;;8.20;1.00;;;;;;7375871;19;20011;-70
2023/12/28 05:59:53;;;;;;;3.17;1.80;;;8.20;1.00;;;;;;7372251;19;20035;-70
2023/12/28 06:02:23;;;;;;;3.33;1.90;;;8.20;1.00;;;;;;7378347;19;20089;-69
2023/12/28 06:04:53;;;;;;;3.38;1.88;;;8.30;1.00;;;;;;7376775;19;20014;-69
2023/12/28 06:07:23;;;;;;;2.60;1.90;;;8.30;1.00;;;;;;7375877;19;20018;-70
2023/12/28 06:09:53;;;;;;;3.53;1.92;;;8.30;1.00;;;;;;7374364;19;20014;-70
2023/12/28 06:12:26;;;;;;;2.40;1.73;;;8.30;1.00;;;;;;7376202;19;20037;-70
2023/12/28 06:14:56;;;;;;;2.65;1.77;;;8.30;1.00;;;;;;7372900;19;20094;-70
2023/12/28 06:17:26;;;;;;;3.20;1.80;;;8.40;1.00;;;;;;7375278;19;20006;-70
2023/12/28 06:19:56;;;;;;;2.00;1.67;;;8.40;1.00;;;;;;7376161;19;20015;-70
2023/12/28 06:22:27;;;;;;;3.28;2.10;;;8.40;1.00;;;;;;7375551;19;20014;-69
2023/12/28 06:24:58;;;;;;;3.92;2.25;;;8.40;1.00;;;;;;7374810;19;20010;-71
2023/12/28 06:27:30;;;;;;;4.75;2.10;;;8.30;1.00;;;;;;7375216;19;20455;-71
2023/12/28 06:30:01;;;;;;;4.28;1.92;;;8.20;1.00;;;;;;7374289;19;20014;-70
2023/12/28 06:32:32;;;;;;;2.90;1.80;;;8.20;1.00;;;;;;7375116;19;20011;-70
2023/12/28 06:35:02;;;;;;;2.60;1.60;;;8.20;1.00;;;;;;7375103;19;20500;-71
2023/12/28 06:37:32;;;;;;;4.10;1.60;;;8.20;1.00;;;;;;7376199;19;20104;-70
2023/12/28 06:40:03;;;;;;;2.17;1.40;;;8.20;1.00;;;;;;7373966;19;20115;-71
2023/12/28 06:42:36;;;;;;;2.42;1.60;;;8.30;1.00;;;;;;7374015;19;20025;-69
2023/12/28 06:45:07;;;;;;;3.97;1.95;;;8.20;1.00;;;;;;7374099;19;20022;-69
2023/12/28 06:47:37;;;;;;;3.80;2.03;;;8.10;1.00;;;;;;7379034;19;20010;-69
2023/12/28 06:50:09;;;;;;;4.78;2.53;;;8.00;1.00;;;;;;7377763;19;20048;-70
2023/12/28 06:52:39;;;;;;;3.50;2.42;;;7.90;1.00;;;;;;7374521;19;20040;-69
2023/12/28 06:55:10;;;;;;;3.17;2.30;;;7.90;1.00;;;;;;7374861;19;20021;-69
2023/12/28 06:57:42;;;;;;;3.97;2.40;;;7.90;1.00;;;;;;7372961;19;20018;-70
2023/12/28 07:00:14;;;;;;;3.97;2.20;;;7.90;1.00;;;;;;7375230;19;20026;-70
2023/12/28 07:02:44;;;;;;;4.25;2.40;;;7.90;1.00;;;;;;7374416;19;20086;-70
2023/12/28 07:05:15;;;;;;;4.45;3.10;;;7.90;1.00;;;;;;7374274;19;20013;-70
2023/12/28 07:07:45;;;;;;;4.05;2.50;;;7.90;1.00;;;;;;7372522;19;20022;-70
2023/12/28 07:10:16;;;;;;;4.20;1.95;;;7.80;1.00;;;;;;7375888;19;20009;-70
2023/12/28 07:12:49;;;;;;;4.05;2.35;;;7.90;1.00;;;;;;7381711;19;20138;-70
2023/12/28 07:15:19;;;;;;;4.55;2.25;;;7.90;1.00;;;;;;7380280;19;20011;-70
2023/12/28 07:17:49;;;;;;;3.25;2.55;;;7.80;1.00;;;;;;7380092;19;20321;-69
2023/12/28 07:20:19;;;;;;;4.72;2.72;;;7.80;1.00;;;;;;7381111;19;20031;-70
2023/12/28 07:22:49;;;;;;;3.85;2.95;;;7.80;1.00;;;;;;7380014;19;20003;-70
2023/12/28 07:25:23;;;;;;;4.10;2.50;;;8.00;1.00;;;;;;7381368;19;20513;-70
2023/12/28 07:27:56;;;;;;;4.93;2.45;;;7.90;1.00;;;;;;7379596;19;20003;-70
2023/12/28 07:30:26;;;;;;;3.42;2.95;;;7.90;1.00;;;;;;7378557;19;20488;-72
2023/12/28 07:32:57;;;;;;;4.50;2.47;;;7.80;1.00;;;;;;7378973;19;20006;-70
2023/12/28 07:35:27;;;;;;;5.72;2.40;;;7.90;1.00;;;;;;7380101;19;20527;-70
2023/12/28 07:37:57;;;;;;;4.90;2.45;;;7.80;1.00;;;;;;7379285;19;20733;-70
2023/12/28 07:40:27;;;;;;;4.18;2.47;;;7.90;1.00;;;;;;7378983;19;20014;-70
2023/12/28 07:43:01;;;;;;;3.90;2.47;;;7.90;1.00;;;;;;7379115;19;20017;-70
2023/12/28 07:45:32;;;;;;;4.25;2.60;;;7.90;1.00;;;;;;7380209;19;20018;-70
2023/12/28 07:48:02;;;;;;;4.38;2.88;;;8.00;1.00;;;;;;7380109;19;20002;-70
2023/12/28 07:50:32;;;;;;;6.13;3.20;;;8.10;1.00;;;;;;7380552;19;20035;-70
2023/12/28 07:53:02;;;;;;;4.10;2.80;;;8.10;1.00;;;;;;7380686;19;20017;-69
2023/12/28 07:55:32;;;;;;;7.70;3.28;;;8.10;1.00;;;;;;7380741;19;20031;-70
2023/12/28 07:58:05;;;;;;;4.63;2.92;;;8.10;1.00;;;;;;7379846;19;20376;-70
2023/12/28 08:00:36;;;;;;;6.88;2.45;;;8.10;1.00;;;;;;7380508;19;20500;-70
2023/12/28 08:03:06;;;;;;;3.83;2.33;;;8.20;1.00;;;;;;7380688;19;20017;-70
2023/12/28 08:05:36;;;;;;;4.32;2.78;;;8.20;1.00;;;;;;7380047;19;20466;-71
2023/12/28 08:08:07;;;;;;;3.63;2.60;;;8.30;1.00;;;;;;7379761;19;20018;-70
2023/12/28 08:10:37;;;;;;;5.53;2.88;;;8.30;1.00;;;;;;7380570;19;20734;-71
2023/12/28 08:13:10;;;;;;;5.85;2.97;;;8.30;1.00;;;;;;7379954;19;20010;-71
2023/12/28 08:15:41;;;;;;;3.63;2.72;;;8.20;1.00;;;;;;7376825;19;20087;-70
2023/12/28 08:18:11;;;;;;;3.85;2.70;;;8.30;1.00;;;;;;7379934;19;20010;-69
2023/12/28 08:20:41;;;;;;;3.78;2.95;;;8.30;1.00;;;;;;7379320;19;20414;-71
2023/12/28 08:23:11;;;;;;;3.40;2.63;;;8.30;1.00;;;;;;7377654;19;20045;-70
2023/12/28 08:25:47;;;;;;;3.72;2.70;;;8.30;1.00;;;;;;7380287;19;20478;-70
2023/12/28 08:28:20;;;;;;;4.28;2.65;;;8.30;1.00;;;;;;7378901;19;27694;-70
2023/12/28 08:30:50;;;;;;;8.38;3.30;;;8.30;1.00;;;;;;7379686;19;20436;-70
2023/12/28 08:33:20;;;;;;;5.65;3.38;;;8.30;1.00;;;;;;7379622;19;20092;-70
2023/12/28 08:35:50;;;;;;;5.13;3.20;;;8.30;1.00;;;;;;7378969;19;20011;-70
2023/12/28 08:38:20;;;;;;;17.88;6.18;;;8.30;1.00;;;;;;7379397;19;20025;-71
2023/12/28 08:40:50;;;;;;;12.43;6.03;;;8.40;1.00;;;;;;7379597;19;20011;-70
2023/12/28 08:43:23;;;;;;;7.60;3.85;;;8.60;1.00;;;;;;7379559;19;20014;-71
2023/12/28 08:45:54;;;;;;;4.57;2.92;;;8.70;1.00;;;;;;7380706;19;20041;-71
2023/12/28 08:48:24;;;;;;;6.22;2.60;;;8.70;1.00;;;;;;7379226;19;20869;-70
2023/12/28 08:50:54;;;;;;;7.80;2.97;;;8.70;1.00;;;;;;7380613;19;20024;-70
2023/12/28 08:53:24;;;;;;;5.28;3.20;;;8.80;1.00;;;;;;7377705;19;20129;-71
2023/12/28 08:55:54;;;;;;;4.13;2.65;;;8.90;1.00;;;;;;7377809;19;20010;-70
2023/12/28 08:58:26;;;;;;;9.55;4.22;;;8.90;1.00;;;;;;7373496;19;20007;-72
2023/12/28 09:00:57;;;;;;;8.38;3.70;;;9.00;1.00;;;;;;7378712;19;20039;-71
2023/12/28 09:03:27;;;;;;;13.05;5.75;;;9.00;1.00;;;;;;7378498;19;20022;-71
2023/12/28 09:05:57;;;;;;;6.00;4.07;;;9.00;1.00;;;;;;7375799;19;20009;-72
2023/12/28 09:08:27;;;;;;;4.82;3.10;;;9.10;1.00;;;;;;7378557;19;20006;-70
2023/12/28 09:10:57;;;;;;;5.60;2.92;;;9.10;1.00;;;;;;7380363;19;20010;-70
2023/12/28 09:13:31;;;;;;;5.10;3.30;;;9.10;1.00;;;;;;7378722;19;20015;-73
2023/12/28 09:16:01;;;;;;;6.00;3.80;;;9.10;1.00;;;;;;7363639;19;20040;-71
2023/12/28 09:18:37;;;;;;;;;;;9.00;1.00;;;;;;7374151;19;20382;-72
2023/12/28 09:21:09;;;;;;;6.03;4.00;;;9.00;1.00;;;;;;7374976;19;19915;-71
2023/12/28 09:23:40;;;;;;;5.28;3.47;;;9.00;1.00;;;;;;7376939;19;20033;-71
2023/12/28 09:26:10;;;;;;;6.53;3.70;;;9.00;1.00;;;;;;7377413;19;20052;-72
2023/12/28 09:28:43;;;;;;;4.32;3.20;;;9.10;1.00;;;;;;7376199;19;20486;-72
2023/12/28 09:31:13;;;;;;;4.65;3.42;;;9.10;1.00;;;;;;7376102;19;20045;-72
2023/12/28 09:33:44;;;;;;;5.28;3.55;;;9.20;1.00;;;;;;7375372;19;20056;-70
2023/12/28 09:36:16;;;;;;;4.45;2.75;;;9.20;1.00;;;;;;7376858;19;20011;-70
2023/12/28 09:38:46;;;;;;;6.82;4.28;;;9.30;1.00;;;;;;7377169;19;20007;-72
2023/12/28 09:41:18;;;;;;;6.28;3.28;;;9.40;1.00;;;;;;7376662;19;20003;-70
2023/12/28 09:43:56;;;;;;;5.55;3.40;;;9.40;1.00;;;;;;7376803;19;20035;-71
2023/12/28 09:46:27;;;;;;;7.57;3.63;;;9.40;1.00;;;;;;7376174;19;20011;-72
2023/12/28 09:48:57;;;;;;;4.10;2.95;;;9.30;1.00;;;;;;7378120;19;20003;-70
2023/12/28 09:51:28;;;;;;;4.22;2.90;;;9.40;1.00;;;;;;7378350;19;20018;-71
2023/12/28 09:53:59;;;;;;;9.20;5.43;;;9.40;1.00;;;;;;7376300;19;20014;-71
2023/12/28 09:56:29;;;;;;;5.82;4.82;;;9.40;1.00;;;;;;7375273;19;20341;-72
2023/12/28 09:59:03;;;;;;;7.82;3.80;;;9.30;1.00;;;;;;7377199;19;20027;-71
2023/12/28 10:01:35;;;;;;;14.40;5.07;;;9.40;1.00;;;;;;7375804;19;20010;-71
2023/12/28 10:04:07;;;;;;;7.10;4.20;;;9.40;1.00;;;;;;7375829;19;20090;-71
2023/12/28 10:06:38;;;;;;;4.95;3.47;;;9.40;1.00;;;;;;7373472;19;20010;-71
2023/12/28 10:09:09;;;;;;;5.97;3.38;;;9.40;1.00;;;;;;7374910;19;20039;-71
2023/12/28 10:11:41;;;;;;;6.40;3.38;;;9.50;1.00;;;;;;7374430;19;20031;-71
2023/12/28 10:14:14;;;;;;;4.75;3.72;;;9.50;1.00;;;;;;7375829;19;20024;-72
2023/12/28 10:16:45;;;;;;;4.97;3.63;;;9.50;1.00;;;;;;7375382;19;20518;-70
2023/12/28 10:19:15;;;;;;;5.88;3.50;;;9.40;1.00;;;;;;7375350;19;20764;-71
2023/12/28 10:21:46;;;;;;;7.38;3.75;;;9.30;1.00;;;;;;7377341;19;20737;-70
2023/12/28 10:24:16;;;;;;;5.80;3.83;;;9.20;1.00;;;;;;7374138;19;20475;-72
2023/12/28 10:26:46;;;;;;;4.63;3.13;;;9.20;1.00;;;;;;7374321;19;20047;-70
2023/12/28 10:29:19;;;;;;;5.72;4.25;;;9.20;1.00;;;;;;7374726;19;20489;-71
2023/12/28 10:31:51;;;;;;;7.43;3.97;;;9.20;1.00;;;;;;7375970;19;20062;-71
2023/12/28 10:34:21;;;;;;;5.88;4.38;;;9.30;1.00;;;;;;7375455;19;20011;-70
2023/12/28 10:36:55;;;;;;;6.40;4.53;;;9.30;1.00;;;;;;7375777;19;20027;-70
2023/12/28 10:39:28;;;;;;;8.82;3.67;;;9.30;1.00;;;;;;7374283;19;26739;-70
2023/12/28 10:42:00;;;;;;;4.13;3.47;;;9.30;1.00;;;;;;7376605;19;27074;-71
2023/12/28 10:44:37;;;;;;;5.38;3.40;;;9.30;1.00;;;;;;7376159;19;20011;-71
2023/12/28 10:47:13;;;;;;;6.72;4.22;;;9.30;1.00;;;;;;7380493;19;20035;-71
2023/12/28 10:49:46;;;;;;;5.70;4.13;;;9.30;1.00;;;;;;7383742;19;20085;-71
2023/12/28 10:52:20;;;;;;;8.60;4.33;;;9.30;1.00;;;;;;7377290;19;20011;-71
2023/12/28 10:54:57;;;;;;;13.02;4.57;;;9.40;1.00;;;;;;7382365;19;20263;-69
2023/12/28 10:57:32;;;;;;;8.73;5.38;;;9.40;1.00;;;;;;7383220;19;20019;-71
2023/12/28 11:00:13;;;;;;;8.55;5.78;;;9.50;1.00;;;;;;7381852;19;20020;-70
2023/12/28 11:02:48;;;;;;;11.45;5.50;;;9.60;1.00;;;;;;7382233;19;20018;-71
2023/12/28 11:05:20;;;;;;;8.30;4.80;;;9.70;1.00;;;;;;7372539;19;20027;-70
2023/12/28 11:07:53;;;;;;;10.35;7.18;;;9.80;1.00;;;;;;7373795;19;20014;-72
2023/12/28 11:10:26;;;;;;;6.97;4.75;;;10.00;1.00;;;;;;7379481;19;20010;-71
2023/12/28 11:12:56;;;;;;;7.05;4.05;;;10.10;1.00;;;;;;7381517;19;20013;-71
2023/12/28 11:15:30;;;;;;;9.60;3.83;;;10.10;1.00;;;;;;7381054;19;20036;-71
2023/12/28 11:18:00;;;;;;;8.32;4.28;;;10.20;1.00;;;;;;7381121;19;20025;-71
2023/12/28 11:20:32;;;;;;;6.63;3.40;;;10.20;1.00;;;;;;7381837;19;20011;-71
2023/12/28 11:23:02;;;;;;;6.82;3.40;;;10.30;1.00;;;;;;7383278;19;20024;-71
2023/12/28 11:25:35;;;;;;;4.97;3.60;;;10.40;1.00;;;;;;7382645;19;20019;-71
2023/12/28 11:28:12;;;;;;;5.95;3.10;;;10.40;1.00;;;;;;7381290;19;20094;-70
2023/12/28 11:30:45;;;;;;;3.47;2.40;;;10.40;1.00;;;;;;7379005;19;20014;-71
2023/12/28 11:33:16;;;;;;;2.92;2.03;;;10.50;1.00;;;;;;7384984;19;20021;-71
2023/12/28 11:35:50;;;;;;;2.08;1.77;;;10.60;1.00;;;;;;7386353;19;20129;-71
2023/12/28 11:38:20;;;;;;;2.88;1.80;;;10.60;1.00;;;;;;7381642;19;20094;-70
2023/12/28 11:40:52;;;;;;;2.22;1.90;;;10.60;1.00;;;;;;7385252;19;20017;-71
2023/12/28 11:43:24;;;;;;;2.25;1.60;;;10.60;1.00;;;;;;7382850;19;20002;-71
2023/12/28 11:45:58;;;;;;;4.30;2.10;;;10.70;1.00;;;;;;7377821;19;20010;-70
2023/12/28 11:48:29;;;;;;;2.80;2.20;;;10.70;1.00;;;;;;7376452;19;20010;-71
2023/12/28 11:51:02;;;;;;;3.85;1.58;;;10.80;1.00;;;;;;7385003;19;20015;-70
2023/12/28 11:53:33;;;;;;;3.58;1.58;;;10.80;1.00;;;;;;7385323;19;20013;-71
2023/12/28 11:56:05;;;;;;;3.85;1.80;;;10.80;1.00;;;;;;7393735;19;20003;-70
2023/12/28 11:58:35;;;;;;;3.88;1.77;;;10.80;1.00;;;;;;7391045;19;20010;-71
2023/12/28 12:01:08;;;;;;;3.05;1.90;;;10.80;1.00;;;;;;7380016;19;20010;-71
2023/12/28 12:03:38;;;;;;;3.65;1.60;;;10.90;1.00;;;;;;7388013;19;20411;-71
2023/12/28 12:06:09;;;;;;;4.15;2.25;;;10.90;1.00;;;;;;7386662;19;20014;-70
2023/12/28 12:08:39;;;;;;;2.00;1.70;;;10.90;1.00;;;;;;7384460;19;20003;-71
2023/12/28 12:11:09;;;;;;;2.75;2.22;;;10.90;1.00;;;;;;7385306;19;20007;-71
2023/12/28 12:13:40;;;;;;;2.97;2.30;;;11.00;1.00;;;;;;7380757;19;20018;-71
2023/12/28 12:16:13;;;;;;;8.13;5.53;;;11.00;1.00;;;;;;7381499;19;20022;-71
2023/12/28 12:18:43;;;;;;;3.95;2.65;;;11.10;1.00;;;;;;7381950;19;20013;-71
2023/12/28 12:21:15;;;;;;;2.15;1.80;;;11.20;1.00;;;;;;7379840;19;20006;-71
2023/12/28 12:23:45;;;;;;;4.10;2.00;;;11.20;1.00;;;;;;7379798;19;20011;-70
2023/12/28 12:26:15;;;;;;;3.40;1.80;;;11.20;1.00;;;;;;7379210;19;20035;-70
2023/12/28 12:28:45;;;;;;;5.10;1.67;;;11.20;1.00;;;;;;7378953;19;20500;-71
2023/12/28 12:31:18;;;;;;;2.88;1.60;;;11.20;1.00;;;;;;7379415;19;20038;-72
2023/12/28 12:33:49;;;;;;;3.17;1.80;;;11.30;1.00;;;;;;7374838;19;20028;-71
2023/12/28 12:36:21;;;;;;;4.65;3.88;;;11.20;1.00;;;;;;7378488;19;20014;-71
2023/12/28 12:38:52;;;;;;;2.75;1.83;;;11.10;1.00;;;;;;7377950;19;20021;-70
2023/12/28 12:41:22;;;;;;;2.80;2.10;;;11.10;1.00;;;;;;7379244;19;20410;-70
2023/12/28 12:43:52;;;;;;;3.20;2.20;;;11.10;1.00;;;;;;7377152;19;20011;-70
2023/12/28 12:46:25;;;;;;;4.93;3.00;;;11.00;1.00;;;;;;7378822;19;20018;-69
2023/12/28 12:48:59;;;;;;;4.28;3.05;;;11.00;1.00;;;;;;7378059;19;20073;-70
2023/12/28 12:51:30;;;;;;;4.47;2.85;;;10.90;1.00;;;;;;7379098;19;20010;-72
2023/12/28 12:54:01;;;;;;;4.13;2.67;;;10.80;1.00;;;;;;7378470;19;20769;-71
2023/12/28 12:56:32;;;;;;;3.47;2.50;;;10.70;1.00;;;;;;7378714;19;20018;-71
2023/12/28 12:59:02;;;;;;;5.18;3.42;;;10.70;1.00;;;;;;7378518;19;20003;-71
2023/12/28 13:01:34;;;;;;;6.22;2.95;;;10.60;1.00;;;;;;7379529;19;20519;-71
2023/12/28 13:04:05;;;;;;;4.85;3.25;;;10.60;1.00;;;;;;7378798;19;20010;-70
2023/12/28 13:06:35;;;;;;;3.90;2.78;;;10.60;1.00;;;;;;7379278;19;20011;-70
2023/12/28 13:09:06;;;;;;;5.15;2.78;;;10.50;1.00;;;;;;7375734;19;20101;-70
2023/12/28 13:11:37;;;;;;;4.50;2.70;;;10.50;1.00;;;;;;7379670;19;20078;-70
2023/12/28 13:14:07;;;;;;;4.20;2.70;;;10.40;1.00;;;;;;7377334;19;20393;-71
2023/12/28 13:16:40;;;;;;;3.35;2.78;;;10.40;1.00;;;;;;7378598;19;20011;-70
2023/12/28 13:19:10;;;;;;;4.40;3.30;;;10.40;1.00;;;;;;7377545;19;20006;-70
2023/12/28 13:21:40;;;;;;;3.88;2.95;;;10.40;1.00;;;;;;7378563;19;20021;-71
2023/12/28 13:24:10;;;;;;;4.60;3.50;;;10.40;1.00;;;;;;7377804;19;20015;-71
2023/12/28 13:26:40;;;;;;;7.03;3.30;;;10.30;1.00;;;;;;7377589;19;20015;-71